Time;durP1;ratioP1;P1;durP2;ratioP2;P2;SDS_P1;SDS_P2;PMS_P1;PMS_P2;Temp;Humidity;BMP_temperature;BMP_pressure;BME280_temperature;BME280_humidity;BME280_pressure;Samples;Min_cycle;Max_cycle;Signal;HPM_P1;HPM_P2
2021/12/04 00:00:41;;;;;;;69.78;28.92;;;;;;;;;;5035805;28;20038;-61
2021/12/04 00:03:07;;;;;;;64.63;25.58;;;;;;;;;;5036007;28;20079;-61
2021/12/04 00:05:32;;;;;;;62.35;25.20;;;;;;;;;;5034745;28;20036;-62
2021/12/04 00:07:58;;;;;;;51.38;23.13;;;;;;;;;;5036120;28;20033;-65
2021/12/04 00:10:28;;;;;;;51.90;23.15;;;;;;;;;;5035708;28;20484;-61
2021/12/04 00:12:54;;;;;;;44.40;20.25;;;;;;;;;;5035944;28;20037;-61
2021/12/04 00:15:19;;;;;;;40.90;20.60;;;;;;;;;;5034835;28;20044;-62
2021/12/04 00:17:45;;;;;;;41.65;19.85;;;;;;;;;;5035544;28;20495;-62
2021/12/04 00:20:11;;;;;;;39.08;19.98;;;;;;;;;;5035918;28;20018;-62
2021/12/04 00:22:36;;;;;;;42.50;19.60;;;;;;;;;;5035652;28;20045;-62
2021/12/04 00:25:03;;;;;;;43.20;19.58;;;;;;;;;;5035571;28;20036;-62
2021/12/04 00:27:29;;;;;;;34.35;17.33;;;;;;;;;;5035443;28;20030;-62
2021/12/04 00:29:57;;;;;;;33.05;16.40;;;;;;;;;;5033620;28;20014;-62
2021/12/04 00:32:32;;;;;;;33.03;16.48;;;;;;;;;;5034592;28;20049;-62
2021/12/04 00:35:44;;;;;;;29.70;15.48;;;;;;;;;;5034160;28;20040;-64
2021/12/04 00:49:18;;;;;;;34.00;14.82;;;;;;;;;;5035061;28;20037;-61
2021/12/04 00:51:46;;;;;;;29.30;14.60;;;;;;;;;;5035347;28;20044;-61
2021/12/04 00:54:13;;;;;;;30.38;15.07;;;;;;;;;;5034944;28;20048;-65
2021/12/04 00:56:42;;;;;;;26.10;13.75;;;;;;;;;;5034458;28;20476;-65
2021/12/04 00:59:08;;;;;;;29.83;15.07;;;;;;;;;;5033686;28;20037;-66
2021/12/04 01:01:36;;;;;;;29.05;14.52;;;;;;;;;;5034757;28;20492;-63
2021/12/04 01:04:03;;;;;;;31.92;16.23;;;;;;;;;;5034797;28;20040;-61
2021/12/04 01:06:28;;;;;;;32.35;14.77;;;;;;;;;;5034723;28;20069;-61
2021/12/04 01:08:54;;;;;;;29.38;14.57;;;;;;;;;;5034624;28;20103;-61
2021/12/04 01:11:19;;;;;;;32.42;15.75;;;;;;;;;;5034641;28;20033;-62
2021/12/04 01:13:45;;;;;;;42.35;19.70;;;;;;;;;;5033537;28;20041;-62
2021/12/04 01:16:11;;;;;;;35.13;15.95;;;;;;;;;;5034483;28;20029;-62
2021/12/04 01:18:37;;;;;;;28.67;14.48;;;;;;;;;;5034469;28;20052;-66
2021/12/04 01:21:02;;;;;;;31.30;14.68;;;;;;;;;;5034347;28;20030;-66
2021/12/04 01:23:28;;;;;;;31.10;14.38;;;;;;;;;;5034086;28;20071;-66
2021/12/04 01:25:53;;;;;;;28.35;14.02;;;;;;;;;;5034361;28;20121;-66
2021/12/04 01:28:19;;;;;;;32.33;15.65;;;;;;;;;;5034279;28;20029;-62
2021/12/04 01:30:44;;;;;;;30.67;15.27;;;;;;;;;;5034248;28;20125;-62
2021/12/04 01:33:10;;;;;;;35.55;17.10;;;;;;;;;;5033190;28;20140;-63
2021/12/04 01:35:35;;;;;;;40.20;15.68;;;;;;;;;;5034464;28;20037;-62
2021/12/04 01:38:01;;;;;;;31.70;14.52;;;;;;;;;;5032807;28;20033;-63
2021/12/04 01:40:27;;;;;;;29.90;13.55;;;;;;;;;;5034058;28;20022;-62
2021/12/04 01:42:53;;;;;;;32.80;14.52;;;;;;;;;;5034010;28;20398;-66
2021/12/04 01:45:19;;;;;;;33.08;14.15;;;;;;;;;;5034030;28;20036;-66
2021/12/04 01:47:45;;;;;;;30.10;14.57;;;;;;;;;;5034165;28;20467;-66
2021/12/04 01:50:10;;;;;;;27.90;12.68;;;;;;;;;;5033874;28;20029;-66
2021/12/04 01:53:08;;;;;;;26.58;13.27;;;;;;;;;;5034100;28;20037;-69
2021/12/04 01:55:56;;;;;;;28.88;13.40;;;;;;;;;;5019280;28;20038;-67
2021/12/04 01:58:22;;;;;;;31.20;14.82;;;;;;;;;;5033979;28;20391;-66
2021/12/04 02:00:48;;;;;;;30.50;14.20;;;;;;;;;;5033756;28;20026;-66
2021/12/04 02:03:14;;;;;;;28.73;14.27;;;;;;;;;;5033825;28;20460;-66
2021/12/04 02:05:40;;;;;;;26.83;12.80;;;;;;;;;;5033479;28;20080;-66
2021/12/04 02:08:06;;;;;;;27.00;13.95;;;;;;;;;;5033696;28;20107;-66
2021/12/04 02:10:32;;;;;;;26.52;12.57;;;;;;;;;;5033544;28;20108;-66
2021/12/04 02:12:57;;;;;;;31.10;14.32;;;;;;;;;;5033584;28;20531;-60
2021/12/04 02:15:23;;;;;;;29.95;15.20;;;;;;;;;;5033488;28;20030;-60
2021/12/04 02:17:49;;;;;;;26.52;12.15;;;;;;;;;;5032285;28;20053;-60
2021/12/04 02:20:16;;;;;;;28.98;14.23;;;;;;;;;;5031838;28;20030;-60
2021/12/04 02:22:42;;;;;;;24.70;12.88;;;;;;;;;;5034140;28;20080;-60
2021/12/04 02:25:09;;;;;;;26.45;12.75;;;;;;;;;;5033302;28;20106;-60
2021/12/04 02:27:35;;;;;;;25.13;12.02;;;;;;;;;;5033562;28;20048;-60
2021/12/04 02:30:00;;;;;;;23.77;12.07;;;;;;;;;;5033581;28;20021;-60
2021/12/04 02:32:26;;;;;;;24.30;12.82;;;;;;;;;;5033216;28;20124;-67
2021/12/04 02:34:51;;;;;;;23.73;11.77;;;;;;;;;;5033201;28;20029;-65
2021/12/04 02:37:17;;;;;;;22.00;11.43;;;;;;;;;;5033224;28;20033;-66
2021/12/04 02:39:45;;;;;;;21.13;11.07;;;;;;;;;;5032069;28;20064;-66
2021/12/04 02:42:21;;;;;;;23.02;11.48;;;;;;;;;;5033381;28;20069;-66
2021/12/04 02:44:48;;;;;;;22.48;12.15;;;;;;;;;;5032153;28;20026;-65
2021/12/04 02:47:14;;;;;;;21.38;10.10;;;;;;;;;;5032054;28;20029;-66
2021/12/04 02:49:40;;;;;;;19.10;10.40;;;;;;;;;;5033577;28;20092;-67
2021/12/04 02:52:07;;;;;;;18.33;9.93;;;;;;;;;;5033140;28;20025;-66
2021/12/04 02:54:44;;;;;;;23.75;11.73;;;;;;;;;;5033777;28;20107;-66
2021/12/04 02:57:20;;;;;;;18.90;10.77;;;;;;;;;;5035882;28;20046;-67
2021/12/04 02:59:48;;;;;;;18.85;9.75;;;;;;;;;;5037389;28;20049;-66
2021/12/04 03:02:25;;;;;;;17.55;9.93;;;;;;;;;;5035700;28;20044;-65
2021/12/04 03:04:54;;;;;;;15.40;9.23;;;;;;;;;;5036964;28;20033;-64
2021/12/04 03:07:20;;;;;;;16.63;9.52;;;;;;;;;;5037259;28;20025;-64
2021/12/04 03:09:45;;;;;;;16.17;8.40;;;;;;;;;;5035636;28;20052;-65
2021/12/04 03:12:11;;;;;;;16.67;9.00;;;;;;;;;;5036818;28;20033;-65
2021/12/04 03:14:37;;;;;;;18.00;9.80;;;;;;;;;;5036503;28;20037;-65
2021/12/04 03:17:03;;;;;;;19.73;10.95;;;;;;;;;;5036846;28;20071;-65
2021/12/04 03:19:29;;;;;;;19.30;10.23;;;;;;;;;;5036731;28;20438;-65
2021/12/04 03:21:55;;;;;;;17.15;9.07;;;;;;;;;;5036702;28;20025;-65
2021/12/04 03:24:21;;;;;;;13.00;8.68;;;;;;;;;;5036769;28;20037;-65
2021/12/04 03:26:49;;;;;;;16.15;9.90;;;;;;;;;;5036520;28;20133;-65
2021/12/04 03:29:18;;;;;;;14.25;8.77;;;;;;;;;;5036611;28;20168;-65
2021/12/04 03:42:27;;;;;;;13.50;8.00;;;;;;;;;;5036478;28;20034;-65
2021/12/04 03:44:52;;;;;;;13.07;8.23;;;;;;;;;;5036606;28;20428;-60
2021/12/04 03:47:19;;;;;;;19.10;8.57;;;;;;;;;;5036369;28;20587;-60
2021/12/04 03:49:47;;;;;;;20.02;10.45;;;;;;;;;;5035229;28;20483;-60
2021/12/04 03:52:13;;;;;;;15.82;8.63;;;;;;;;;;5036323;28;20048;-61
2021/12/04 03:54:38;;;;;;;13.90;8.65;;;;;;;;;;5036308;28;20472;-61
2021/12/04 03:57:04;;;;;;;16.10;9.40;;;;;;;;;;5034524;28;20037;-61
2021/12/04 03:59:37;;;;;;;16.67;9.63;;;;;;;;;;5036309;28;20045;-62
2021/12/04 04:02:08;;;;;;;14.85;9.38;;;;;;;;;;5035835;28;20044;-62
2021/12/04 04:04:34;;;;;;;16.98;9.40;;;;;;;;;;5035800;28;20041;-61
2021/12/04 04:07:00;;;;;;;14.70;9.20;;;;;;;;;;5034945;28;20029;-62
2021/12/04 04:09:25;;;;;;;14.07;8.85;;;;;;;;;;5035687;28;20034;-63
2021/12/04 04:11:51;;;;;;;13.65;9.05;;;;;;;;;;5035892;28;20476;-62
2021/12/04 04:14:17;;;;;;;15.13;9.10;;;;;;;;;;5034570;28;20044;-62
2021/12/04 04:16:42;;;;;;;14.18;8.73;;;;;;;;;;5035737;28;20040;-62
2021/12/04 04:19:09;;;;;;;14.00;8.90;;;;;;;;;;5035989;28;20099;-62
2021/12/04 04:21:39;;;;;;;15.15;9.07;;;;;;;;;;5035542;28;20490;-66
2021/12/04 04:24:13;;;;;;;17.15;8.82;;;;;;;;;;5035584;28;20029;-66
2021/12/04 04:26:40;;;;;;;14.18;9.45;;;;;;;;;;5035570;28;20034;-66
2021/12/04 04:29:06;;;;;;;16.42;10.18;;;;;;;;;;5035463;28;20534;-68
2021/12/04 04:31:32;;;;;;;16.13;9.77;;;;;;;;;;5035608;28;20051;-66
2021/12/04 04:34:03;;;;;;;17.42;10.60;;;;;;;;;;5035613;28;20472;-65
2021/12/04 05:11:14;;;;;;;16.00;9.25;;;;;;;;;;5034948;28;20057;-63
2021/12/04 05:13:39;;;;;;;52.63;11.70;;;;;;;;;;5033338;28;20088;-63
2021/12/04 05:16:19;;;;;;;23.23;13.13;;;;;;;;;;5034271;28;20508;-63
2021/12/04 05:21:37;;;;;;;41.15;18.50;;;;;;;;;;5033095;28;20045;-63
2021/12/04 05:24:02;;;;;;;30.52;14.55;;;;;;;;;;5033271;28;20021;-63
2021/12/04 05:26:28;;;;;;;28.45;14.23;;;;;;;;;;5034337;28;20076;-63
2021/12/04 05:28:55;;;;;;;27.30;14.02;;;;;;;;;;5034651;28;20159;-63
2021/12/04 05:31:20;;;;;;;38.30;15.48;;;;;;;;;;5033302;28;20095;-64
2021/12/04 05:33:46;;;;;;;26.63;14.27;;;;;;;;;;5034274;28;20565;-63
2021/12/04 05:36:12;;;;;;;29.48;14.40;;;;;;;;;;5034194;28;20520;-64
2021/12/04 05:38:37;;;;;;;22.95;11.90;;;;;;;;;;5034034;28;20034;-64
2021/12/04 05:41:03;;;;;;;21.88;11.48;;;;;;;;;;5034179;28;20045;-64
2021/12/04 05:43:29;;;;;;;16.50;9.43;;;;;;;;;;5034113;28;20432;-63
2021/12/04 05:46:05;;;;;;;14.52;8.95;;;;;;;;;;5033010;28;20029;-64
2021/12/04 05:48:37;;;;;;;18.38;10.10;;;;;;;;;;5033997;28;20033;-68
2021/12/04 05:56:18;;;;;;;17.42;10.00;;;;;;;;;;5032621;28;20040;-69
2021/12/04 05:58:43;;;;;;;17.42;10.55;;;;;;;;;;5033880;28;20041;-68
2021/12/04 06:01:09;;;;;;;19.00;10.73;;;;;;;;;;5033270;28;20045;-68
2021/12/04 06:03:35;;;;;;;30.55;15.57;;;;;;;;;;5034189;28;20527;-68
2021/12/04 06:06:01;;;;;;;46.38;21.90;;;;;;;;;;5033587;28;20500;-68
2021/12/04 06:08:27;;;;;;;80.03;42.17;;;;;;;;;;5033757;28;20448;-68
2021/12/04 06:10:53;;;;;;;47.35;24.60;;;;;;;;;;5032560;28;20057;-68
2021/12/04 06:13:19;;;;;;;30.35;18.00;;;;;;;;;;5033740;28;20038;-68
2021/12/04 06:15:44;;;;;;;26.98;15.35;;;;;;;;;;5033630;28;20038;-68
2021/12/04 06:18:10;;;;;;;29.65;17.80;;;;;;;;;;5033738;28;20059;-68
2021/12/04 06:23:21;;;;;;;40.50;23.52;;;;;;;;;;5033367;28;20466;-69
2021/12/04 06:25:47;;;;;;;42.25;23.65;;;;;;;;;;5033243;28;20037;-69
2021/12/04 06:28:12;;;;;;;40.92;23.70;;;;;;;;;;5032559;28;20060;-69
2021/12/04 06:30:39;;;;;;;58.28;32.15;;;;;;;;;;5033203;28;20029;-69
2021/12/04 06:33:12;;;;;;;58.22;38.20;;;;;;;;;;5035712;28;20044;-71
2021/12/04 06:35:41;;;;;;;41.85;25.45;;;;;;;;;;5054905;28;20392;-71
2021/12/04 06:38:08;;;;;;;35.97;23.23;;;;;;;;;;5043700;28;20029;-64
2021/12/04 06:40:35;;;;;;;31.25;19.67;;;;;;;;;;5042671;28;20033;-64
2021/12/04 06:43:01;;;;;;;24.52;14.50;;;;;;;;;;5040355;28;20021;-64
2021/12/04 06:45:30;;;;;;;23.52;14.82;;;;;;;;;;5036969;28;20087;-64
2021/12/04 06:48:03;;;;;;;23.88;14.02;;;;;;;;;;5036143;28;20108;-64
2021/12/04 06:52:55;;;;;;;19.70;11.10;;;;;;;;;;5042282;28;20529;-69
2021/12/04 06:55:27;;;;;;;15.85;10.90;;;;;;;;;;5045343;28;20079;-70
2021/12/04 06:57:52;;;;;;;21.35;14.50;;;;;;;;;;5043557;28;20057;-69
2021/12/04 07:00:19;;;;;;;23.85;13.90;;;;;;;;;;5040731;28;20032;-69
2021/12/04 07:02:45;;;;;;;24.60;13.10;;;;;;;;;;5046949;28;20060;-69
2021/12/04 07:05:11;;;;;;;45.92;27.40;;;;;;;;;;5043176;28;20029;-69
2021/12/04 07:07:36;;;;;;;57.72;31.60;;;;;;;;;;5042223;28;20526;-69
2021/12/04 07:10:03;;;;;;;53.67;28.67;;;;;;;;;;5040592;28;20037;-69
2021/12/04 07:12:28;;;;;;;56.17;29.08;;;;;;;;;;5032994;28;20447;-68
2021/12/04 07:14:54;;;;;;;192.68;109.10;;;;;;;;;;5031775;28;20069;-68
2021/12/04 07:17:20;;;;;;;122.75;68.65;;;;;;;;;;5015026;28;20045;-68
2021/12/04 07:19:45;;;;;;;71.45;39.38;;;;;;;;;;5032792;28;20070;-68
2021/12/04 07:22:11;;;;;;;81.53;39.42;;;;;;;;;;5032982;28;20529;-68
2021/12/04 07:24:36;;;;;;;76.10;36.85;;;;;;;;;;5032837;28;20553;-68
2021/12/04 07:27:02;;;;;;;70.72;34.95;;;;;;;;;;5032918;28;20025;-68
2021/12/04 07:29:27;;;;;;;72.97;36.45;;;;;;;;;;5033040;28;20375;-69
2021/12/04 07:31:53;;;;;;;109.22;54.40;;;;;;;;;;5032756;28;20109;-69
2021/12/04 07:34:19;;;;;;;121.85;60.60;;;;;;;;;;5032881;28;20065;-68
2021/12/04 07:36:44;;;;;;;82.10;44.50;;;;;;;;;;5032586;28;20033;-68
2021/12/04 07:39:10;;;;;;;80.85;44.83;;;;;;;;;;5031295;28;20368;-67
2021/12/04 07:41:38;;;;;;;64.47;34.63;;;;;;;;;;5034831;28;20029;-68
2021/12/04 07:44:10;;;;;;;66.25;36.90;;;;;;;;;;5036445;28;20088;-67
2021/12/04 07:46:37;;;;;;;96.47;44.70;;;;;;;;;;5036532;28;20121;-68
2021/12/04 07:49:03;;;;;;;108.55;46.97;;;;;;;;;;5036081;28;20040;-67
2021/12/04 07:51:28;;;;;;;124.15;54.05;;;;;;;;;;5036230;28;20046;-67
2021/12/04 07:53:54;;;;;;;101.20;46.45;;;;;;;;;;5036229;28;20112;-68
2021/12/04 07:56:19;;;;;;;84.10;43.78;;;;;;;;;;5036286;28;20448;-66
2021/12/04 07:58:45;;;;;;;96.75;46.75;;;;;;;;;;5035308;28;20050;-67
2021/12/04 08:01:12;;;;;;;75.38;39.63;;;;;;;;;;5034620;28;20025;-66
2021/12/04 08:03:38;;;;;;;78.63;39.95;;;;;;;;;;5036008;28;20045;-67
2021/12/04 08:06:04;;;;;;;69.32;35.22;;;;;;;;;;5035754;28;20092;-67
2021/12/04 08:08:30;;;;;;;110.65;55.05;;;;;;;;;;5036050;28;20036;-68
2021/12/04 08:10:55;;;;;;;114.78;57.95;;;;;;;;;;5035983;28;20068;-68
2021/12/04 08:13:21;;;;;;;112.40;54.85;;;;;;;;;;5035629;28;20025;-67
2021/12/04 08:15:47;;;;;;;141.43;65.50;;;;;;;;;;5035566;28;20126;-68
2021/12/04 08:18:12;;;;;;;153.75;71.70;;;;;;;;;;5035656;28;20084;-67
2021/12/04 08:20:38;;;;;;;118.22;54.80;;;;;;;;;;5035688;28;20495;-67
2021/12/04 08:23:05;;;;;;;106.40;50.33;;;;;;;;;;5035458;28;20033;-68
2021/12/04 08:25:31;;;;;;;157.70;80.03;;;;;;;;;;5035467;28;20042;-68
2021/12/04 08:27:57;;;;;;;95.03;48.00;;;;;;;;;;5035491;28;20025;-67
2021/12/04 08:30:24;;;;;;;96.03;46.22;;;;;;;;;;5035570;28;20049;-68
2021/12/04 08:32:52;;;;;;;81.78;40.97;;;;;;;;;;5034230;28;20171;-68
2021/12/04 08:35:19;;;;;;;91.60;43.08;;;;;;;;;;5035398;28;20372;-64
2021/12/04 08:37:46;;;;;;;71.32;34.50;;;;;;;;;;5035228;28;20052;-64
2021/12/04 08:40:14;;;;;;;59.70;28.05;;;;;;;;;;5035210;28;20068;-63
2021/12/04 08:42:41;;;;;;;54.38;29.35;;;;;;;;;;5035178;28;20026;-64
2021/12/04 08:45:08;;;;;;;45.17;21.85;;;;;;;;;;5035328;28;20088;-64
2021/12/04 08:47:34;;;;;;;29.13;15.63;;;;;;;;;;5034700;28;20036;-64
2021/12/04 08:49:59;;;;;;;38.38;21.92;;;;;;;;;;5035175;28;20034;-64
2021/12/04 08:52:25;;;;;;;32.95;17.83;;;;;;;;;;5034131;28;20033;-64
2021/12/04 08:54:50;;;;;;;49.28;25.17;;;;;;;;;;5034973;28;20492;-64
2021/12/04 08:57:16;;;;;;;76.32;29.58;;;;;;;;;;5035396;28;20033;-64
2021/12/04 08:59:42;;;;;;;83.35;29.98;;;;;;;;;;5035037;28;20045;-64
2021/12/04 09:02:10;;;;;;;68.35;31.30;;;;;;;;;;5033554;28;20065;-64
2021/12/04 09:04:36;;;;;;;66.82;29.95;;;;;;;;;;5035032;28;20063;-64
2021/12/04 09:07:03;;;;;;;62.63;29.98;;;;;;;;;;5033586;28;20116;-64
2021/12/04 09:09:28;;;;;;;67.75;32.00;;;;;;;;;;5034732;28;20431;-63
2021/12/04 09:11:56;;;;;;;81.93;35.63;;;;;;;;;;5034623;28;20479;-64
2021/12/04 09:14:24;;;;;;;50.47;23.05;;;;;;;;;;5033444;28;20040;-64
2021/12/04 09:16:51;;;;;;;62.47;28.10;;;;;;;;;;5034555;28;20136;-64
2021/12/04 09:19:17;;;;;;;51.72;25.92;;;;;;;;;;5034778;28;20030;-65
2021/12/04 09:21:43;;;;;;;32.40;17.52;;;;;;;;;;5034477;28;20063;-64
2021/12/04 09:24:24;;;;;;;60.10;28.60;;;;;;;;;;5034465;28;20029;-65
2021/12/04 10:15:20;;;;;;;;;;;;;;;;;;5031409;28;20535;-64
2021/12/04 10:23:13;;;;;;;68.82;30.67;;;;;;;;;;5030524;28;20144;-64
2021/12/04 10:33:46;;;;;;;61.70;27.00;;;;;;;;;;5049620;28;20041;-64
2021/12/04 10:36:12;;;;;;;47.95;22.60;;;;;;;;;;5050203;28;20033;-63
2021/12/04 10:38:42;;;;;;;50.60;23.15;;;;;;;;;;5050929;28;20033;-71
2021/12/04 10:41:09;;;;;;;70.60;32.97;;;;;;;;;;5051338;28;20041;-71
2021/12/04 10:43:36;;;;;;;36.90;18.10;;;;;;;;;;5049878;28;20025;-71
2021/12/04 10:46:09;;;;;;;44.40;20.67;;;;;;;;;;5051077;28;20044;-73
2021/12/04 10:48:37;;;;;;;29.15;15.95;;;;;;;;;;5051332;28;20045;-74
2021/12/04 10:53:37;;;;;;;35.08;16.27;;;;;;;;;;5050822;28;20041;-69
2021/12/04 11:25:08;;;;;;;24.10;11.95;;;;;;;;;;5057330;28;20501;-69
2021/12/04 11:51:05;;;;;;;96.30;42.15;;;;;;;;;;5054620;28;20032;-67
2021/12/04 11:57:07;;;;;;;29.60;14.73;;;;;;;;;;5054677;28;20525;-67
2021/12/04 12:10:48;;;;;;;42.80;22.70;;;;;;;;;;5056429;28;20036;-67
2021/12/04 12:13:22;;;;;;;35.00;18.73;;;;;;;;;;5055284;28;20037;-67
2021/12/04 12:15:56;;;;;;;39.05;21.13;;;;;;;;;;5055419;28;20484;-67
2021/12/04 12:18:22;;;;;;;52.38;28.33;;;;;;;;;;5055024;28;20087;-67
2021/12/04 12:45:35;;;;;;;56.80;29.35;;;;;;;;;;5055765;28;20481;-67
2021/12/04 12:51:36;;;;;;;105.10;46.28;;;;;;;;;;5055631;28;20068;-67
2021/12/04 12:57:38;;;;;;;93.38;44.83;;;;;;;;;;5055588;28;20031;-67
2021/12/04 13:14:20;;;;;;;18.48;9.73;;;;;;;;;;5055244;28;20445;-67
2021/12/04 13:20:23;;;;;;;15.68;9.68;;;;;;;;;;5054831;28;20529;-67
2021/12/04 13:26:28;;;;;;;18.65;11.43;;;;;;;;;;5055022;28;20124;-67
2021/12/04 13:32:32;;;;;;;23.33;15.52;;;;;;;;;;5054436;28;20028;-68
2021/12/04 13:42:56;;;;;;;16.23;8.70;;;;;;;;;;5052427;28;20578;-67
2021/12/04 13:49:00;;;;;;;17.75;8.13;;;;;;;;;;5052464;28;20124;-67
2021/12/04 13:58:54;;;;;;;14.18;8.18;;;;;;;;;;5052282;28;20048;-67
2021/12/04 14:08:43;;;;;;;18.08;10.05;;;;;;;;;;5054026;28;20026;-67
2021/12/04 14:14:43;;;;;;;15.32;9.73;;;;;;;;;;5053868;28;20024;-71
2021/12/04 14:20:46;;;;;;;20.00;11.52;;;;;;;;;;5054030;28;20035;-70
2021/12/04 14:30:53;;;;;;;15.55;9.30;;;;;;;;;;5053941;28;20114;-71
2021/12/04 14:37:00;;;;;;;13.80;8.80;;;;;;;;;;5053727;28;20140;-71
2021/12/04 14:43:04;;;;;;;15.45;9.15;;;;;;;;;;5053981;28;20390;-71
2021/12/04 14:49:09;;;;;;;25.23;13.63;;;;;;;;;;5053531;28;20567;-72
2021/12/04 14:55:16;;;;;;;86.43;45.17;;;;;;;;;;5057891;28;20553;-72
2021/12/04 15:01:19;;;;;;;178.05;85.55;;;;;;;;;;5057822;28;20037;-69
2021/12/04 15:10:58;;;;;;;65.88;31.40;;;;;;;;;;5057562;28;20044;-69
2021/12/04 15:23:54;;;;;;;8.75;6.10;;;;;;;;;;5057131;28;20490;-69
2021/12/04 15:29:55;;;;;;;6.28;4.65;;;;;;;;;;5057239;28;20433;-69
2021/12/04 15:35:56;;;;;;;7.53;4.80;;;;;;;;;;5057139;28;20074;-69
2021/12/04 15:59:22;;;;;;;25.80;14.52;;;;;;;;;;5056499;28;20047;-69
2021/12/04 16:05:24;;;;;;;25.33;13.85;;;;;;;;;;5056574;28;20103;-69
2021/12/04 16:14:37;;;;;;;31.40;16.95;;;;;;;;;;5056427;28;20107;-71
2021/12/04 16:20:40;;;;;;;20.63;12.30;;;;;;;;;;5056382;28;20419;-71
2021/12/04 16:26:41;;;;;;;38.00;21.23;;;;;;;;;;5056273;28;20538;-70
2021/12/04 16:39:32;;;;;;;22.38;11.80;;;;;;;;;;5055693;28;20079;-70
2021/12/04 16:45:33;;;;;;;57.97;28.15;;;;;;;;;;5055597;28;20159;-70
2021/12/04 17:02:00;;;;;;;63.53;31.95;;;;;;;;;;5055521;28;20465;-71
2021/12/04 17:08:02;;;;;;;94.68;39.72;;;;;;;;;;5055518;28;20533;-72
2021/12/04 17:17:42;;;;;;;134.57;52.67;;;;;;;;;;5055534;28;20055;-69
2021/12/04 17:23:12;;;;;;;156.25;63.50;;;;;;;;;;5054922;28;19916;-67
2021/12/04 17:29:13;;;;;;;109.18;46.60;;;;;;;;;;5055013;28;20575;-74
2021/12/04 17:35:16;;;;;;;199.77;70.75;;;;;;;;;;5054842;28;20024;-74
2021/12/04 17:41:19;;;;;;;146.43;50.40;;;;;;;;;;5054740;28;20466;-74
2021/12/04 17:47:20;;;;;;;65.30;28.48;;;;;;;;;;5054701;28;20070;-74
2021/12/04 17:53:21;;;;;;;51.47;22.88;;;;;;;;;;5054535;28;20403;-73
2021/12/04 17:59:25;;;;;;;134.30;52.55;;;;;;;;;;5054252;28;20036;-73
2021/12/04 18:05:57;;;;;;;106.78;46.85;;;;;;;;;;5054050;28;20078;-73
2021/12/04 18:12:00;;;;;;;96.90;43.17;;;;;;;;;;5054212;28;20475;-74
2021/12/04 18:21:09;;;;;;;81.78;34.22;;;;;;;;;;5054104;28;20047;-72
2021/12/04 18:30:54;;;;;;;90.25;40.55;;;;;;;;;;5053965;28;20103;-72
2021/12/04 18:36:55;;;;;;;71.95;38.40;;;;;;;;;;5053907;28;20032;-72
2021/12/04 18:42:56;;;;;;;88.47;41.35;;;;;;;;;;5053549;28;20032;-72
2021/12/04 18:48:56;;;;;;;67.45;28.85;;;;;;;;;;5053803;28;20024;-72
2021/12/04 18:54:57;;;;;;;40.00;21.38;;;;;;;;;;5053693;28;20028;-72
2021/12/04 19:00:57;;;;;;;105.72;47.42;;;;;;;;;;5053655;28;20494;-72
2021/12/04 19:06:58;;;;;;;49.08;22.92;;;;;;;;;;5053648;28;20497;-72
2021/12/04 19:13:03;;;;;;;39.55;18.05;;;;;;;;;;5053533;28;20024;-72
2021/12/04 19:22:52;;;;;;;55.10;23.45;;;;;;;;;;5053453;28;20074;-72
2021/12/04 19:28:53;;;;;;;330.98;131.85;;;;;;;;;;5053278;28;20035;-74
2021/12/04 19:48:55;;;;;;;59.38;27.65;;;;;;;;;;5056907;28;20116;-73
2021/12/04 19:59:09;;;;;;;38.92;18.73;;;;;;;;;;5054359;28;20163;-73
2021/12/04 20:04:57;;;;;;;34.47;19.92;;;;;;;;;;5052796;28;20041;-73
2021/12/04 20:15:23;;;;;;;36.60;19.63;;;;;;;;;;5053646;28;20111;-73
2021/12/04 20:17:55;;;;;;;47.15;26.73;;;;;;;;;;5050447;28;20048;-73
2021/12/04 20:20:23;;;;;;;49.67;28.15;;;;;;;;;;5052223;28;20044;-73
2021/12/04 20:22:50;;;;;;;57.17;28.52;;;;;;;;;;5054385;28;20087;-72
2021/12/04 20:25:23;;;;;;;68.32;27.27;;;;;;;;;;5069761;28;20037;-72
2021/12/04 20:27:53;;;;;;;84.60;41.67;;;;;;;;;;5054670;28;20040;-72
2021/12/04 20:30:48;;;;;;;40.60;21.25;;;;;;;;;;5052048;28;20055;-73
2021/12/04 21:03:06;;;;;;;28.83;16.52;;;;;;;;;;5050185;28;20037;-72
2021/12/04 21:13:26;;;;;;;44.40;24.20;;;;;;;;;;5049935;28;20122;-72
2021/12/04 21:51:17;;;;;;;27.25;15.02;;;;;;;;;;5053789;28;20110;-71
2021/12/04 21:53:44;;;;;;;32.40;15.60;;;;;;;;;;5053687;28;20033;-71
2021/12/04 22:10:13;;;;;;;87.65;43.08;;;;;;;;;;5053711;28;20398;-70
2021/12/04 22:26:35;;;;;;;71.82;40.28;;;;;;;;;;5053659;28;20495;-71
2021/12/04 22:58:47;;;;;;;35.40;22.02;;;;;;;;;;5053012;28;20076;-69
2021/12/04 23:01:22;;;;;;;33.88;20.98;;;;;;;;;;5052863;28;20029;-69
2021/12/04 23:12:12;;;;;;;29.52;16.95;;;;;;;;;;5056227;28;20045;-69
2021/12/04 23:14:41;;;;;;;;;;;;;;;;;;5057595;28;20039;-69
2021/12/04 23:32:16;;;;;;;35.28;17.55;;;;;;;;;;5056936;28;20060;-70
2021/12/04 23:42:04;;;;;;;30.02;16.98;;;;;;;;;;5036811;28;20041;-70
2021/12/04 23:48:05;;;;;;;31.15;17.63;;;;;;;;;;5056730;28;20049;-70
